Date,TemperatureHighF,TemperatureAvgF,TemperatureLowF,DewpointHighF,DewpointAvgF,DewpointLowF,HumidityHigh,HumidityAvg,HumidityLow,PressureMaxIn,PressureMinIn,WindSpeedMaxMPH,WindSpeedAvgMPH,GustSpeedMaxMPH,PrecipitationSumIn
2013-5-1,69.6,60.3,50.7,63.0,57.6,49.3,97,91,76,30.15,30.07,7,1,10,0.00
2013-5-2,70.3,60.0,53.1,63.5,57.0,49.1,97,90,77,30.17,30.09,8,2,9,0.00
2013-5-3,67.5,59.5,49.5,61.9,55.5,45.3,94,87,79,30.16,30.06,7,1,8,0.00
2013-5-4,70.2,59.6,50.2,60.4,54.0,44.2,93,82,70,30.10,29.99,11,2,11,0.00
2013-5-5,74.1,61.3,51.4,63.0,56.8,47.8,97,86,60,30.04,29.91,16,2,17,0.06
2013-5-6,70.0,61.9,56.5,64.6,60.7,55.2,99,96,78,30.04,29.93,10,1,10,0.44
2013-5-7,68.5,59.9,51.6,65.3,58.2,50.5,99,94,75,30.07,29.97,8,1,8,0.00
2013-5-8,70.5,62.3,54.9,66.2,59.9,51.8,99,92,80,30.10,30.01,10,1,10,0.00
2013-5-9,72.3,61.5,51.6,64.4,58.5,48.7,98,90,70,30.16,30.04,8,2,8,0.00
2013-5-10,72.1,62.6,54.0,65.8,59.0,50.2,95,88,77,30.19,30.09,10,2,10,0.00
2013-5-11,69.4,62.3,55.0,65.7,60.4,53.1,99,93,83,30.16,30.06,8,1,8,0.02
2013-5-12,68.9,62.4,55.6,66.0,61.3,54.5,99,96,86,30.15,30.05,6,1,6,0.17
2013-5-13,68.2,61.5,55.0,67.3,60.8,54.5,99,98,91,30.13,30.05,7,1,7,0.73
2013-5-14,71.8,63.8,54.9,67.1,61.1,51.1,99,91,83,30.15,30.08,11,1,11,0.73
2013-5-15,71.4,61.4,50.7,65.7,57.7,46.0,97,88,76,30.20,30.11,9,1,11,0.00
2013-5-16,71.1,61.3,51.1,63.7,57.4,48.2,96,88,74,30.18,30.08,8,1,8,0.00
2013-5-17,67.5,59.7,52.2,62.1,56.7,49.5,96,90,79,30.13,30.04,8,1,8,0.14
2013-5-18,69.4,59.5,52.3,63.7,57.2,50.5,99,92,80,30.11,30.02,9,2,9,0.17
2013-5-19,67.1,58.3,51.6,63.1,56.8,50.2,99,95,82,30.08,29.96,9,1,9,0.12
2013-5-20,69.1,58.5,49.6,63.3,56.4,47.7,99,93,81,30.06,29.98,14,2,14,0.15
2013-5-21,71.1,61.6,54.0,65.7,59.1,52.5,99,92,68,30.08,29.99,13,2,15,0.15
2013-5-22,70.5,61.4,52.9,64.6,58.4,50.7,99,90,73,30.12,30.02,7,1,7,0.49
2013-5-23,74.5,63.9,54.0,68.4,60.5,52.0,98,89,78,30.12,30.01,12,2,12,0.49
2013-5-24,74.5,63.7,54.0,67.8,60.5,52.2,98,90,76,30.11,30.02,11,1,13,0.00
2013-5-25,70.0,62.5,52.5,65.5,59.9,50.2,98,91,83,30.11,30.03,8,1,8,0.01
2013-5-26,72.0,62.9,53.6,65.8,59.3,51.6,97,88,77,30.14,30.04,11,2,11,0.01
2013-5-27,69.1,60.2,53.1,63.3,57.0,47.8,98,89,78,30.17,30.07,7,1,7,0.64
2013-5-28,69.3,60.6,53.2,65.3,58.6,52.0,98,93,83,30.19,30.10,8,1,9,0.67
2013-5-29,69.8,61.6,55.2,65.3,59.4,52.5,98,93,83,30.17,30.08,7,1,7,0.08
2013-5-30,70.5,61.4,53.1,65.5,59.3,51.3,98,93,84,30.13,30.02,7,1,7,0.08
2013-5-31,70.3,61.2,50.4,66.2,59.0,48.6,98,93,81,30.13,30.03,6,1,6,0.00